sensor_id;sensor_type;location;lat;lon;timestamp;P1;P2;P0
47810;PMS5003;33575;52.600;7.318;2022-11-13T00:02:25;39;37;
47810;PMS5003;33575;52.600;7.318;2022-11-13T00:04:55;32;32;
47810;PMS5003;33575;52.600;7.318;2022-11-13T00:07:26;33;32;
47810;PMS5003;33575;52.600;7.318;2022-11-13T00:09:56;42;38;
47810;PMS5003;33575;52.600;7.318;2022-11-13T00:12:27;33;32;
47810;PMS5003;33575;52.600;7.318;2022-11-13T00:14:57;36;35;
47810;PMS5003;33575;52.600;7.318;2022-11-13T00:17:27;37;36;
47810;PMS5003;33575;52.600;7.318;2022-11-13T00:19:58;37;35;
47810;PMS5003;33575;52.600;7.318;2022-11-13T00:22:28;33;32;
47810;PMS5003;33575;52.600;7.318;2022-11-13T00:24:59;31;31;
47810;PMS5003;33575;52.600;7.318;2022-11-13T00:27:30;31;30;
47810;PMS5003;33575;52.600;7.318;2022-11-13T00:30:00;34;32;
47810;PMS5003;33575;52.600;7.318;2022-11-13T00:32:30;31;29;
47810;PMS5003;33575;52.600;7.318;2022-11-13T00:35:00;31;29;
47810;PMS5003;33575;52.600;7.318;2022-11-13T00:37:31;38;35;
47810;PMS5003;33575;52.600;7.318;2022-11-13T00:40:01;29;29;
47810;PMS5003;33575;52.600;7.318;2022-11-13T00:42:32;34;33;
47810;PMS5003;33575;52.600;7.318;2022-11-13T00:45:02;27;27;
47810;PMS5003;33575;52.600;7.318;2022-11-13T00:47:32;29;26;
47810;PMS5003;33575;52.600;7.318;2022-11-13T00:50:03;30;28;
47810;PMS5003;33575;52.600;7.318;2022-11-13T00:52:33;31;31;
47810;PMS5003;33575;52.600;7.318;2022-11-13T00:55:04;39;36;
47810;PMS5003;33575;52.600;7.318;2022-11-13T00:57:34;31;30;
47810;PMS5003;33575;52.600;7.318;2022-11-13T01:00:05;26;26;
47810;PMS5003;33575;52.600;7.318;2022-11-13T01:02:35;27;27;
47810;PMS5003;33575;52.600;7.318;2022-11-13T01:05:06;30;27;
47810;PMS5003;33575;52.600;7.318;2022-11-13T01:07:36;29;27;
47810;PMS5003;33575;52.600;7.318;2022-11-13T01:10:07;30;28;
47810;PMS5003;33575;52.600;7.318;2022-11-13T01:12:37;27;25;
47810;PMS5003;33575;52.600;7.318;2022-11-13T01:15:08;33;32;
47810;PMS5003;33575;52.600;7.318;2022-11-13T01:17:38;31;28;
47810;PMS5003;33575;52.600;7.318;2022-11-13T01:20:09;30;29;
47810;PMS5003;33575;52.600;7.318;2022-11-13T01:22:38;30;27;
47810;PMS5003;33575;52.600;7.318;2022-11-13T01:25:09;31;28;
47810;PMS5003;33575;52.600;7.318;2022-11-13T01:27:39;35;31;
47810;PMS5003;33575;52.600;7.318;2022-11-13T01:30:09;33;30;
47810;PMS5003;33575;52.600;7.318;2022-11-13T01:32:40;30;29;
47810;PMS5003;33575;52.600;7.318;2022-11-13T01:35:10;31;29;
47810;PMS5003;33575;52.600;7.318;2022-11-13T01:37:40;33;32;
47810;PMS5003;33575;52.600;7.318;2022-11-13T01:40:11;35;34;
47810;PMS5003;33575;52.600;7.318;2022-11-13T01:42:41;36;34;
47810;PMS5003;33575;52.600;7.318;2022-11-13T01:47:42;40;39;
47810;PMS5003;33575;52.600;7.318;2022-11-13T01:50:13;33;31;
47810;PMS5003;33575;52.600;7.318;2022-11-13T01:52:43;38;34;
47810;PMS5003;33575;52.600;7.318;2022-11-13T01:55:14;37;34;
47810;PMS5003;33575;52.600;7.318;2022-11-13T01:57:43;35;32;
47810;PMS5003;33575;52.600;7.318;2022-11-13T02:00:15;33;30;
47810;PMS5003;33575;52.600;7.318;2022-11-13T02:02:44;31;30;
47810;PMS5003;33575;52.600;7.318;2022-11-13T02:05:15;31;28;
47810;PMS5003;33575;52.600;7.318;2022-11-13T02:07:45;32;30;
47810;PMS5003;33575;52.600;7.318;2022-11-13T02:10:16;30;30;
47810;PMS5003;33575;52.600;7.318;2022-11-13T02:12:47;29;28;
47810;PMS5003;33575;52.600;7.318;2022-11-13T02:15:17;30;29;
47810;PMS5003;33575;52.600;7.318;2022-11-13T02:17:47;35;33;
47810;PMS5003;33575;52.600;7.318;2022-11-13T02:20:18;33;32;
47810;PMS5003;33575;52.600;7.318;2022-11-13T02:22:49;31;30;
47810;PMS5003;33575;52.600;7.318;2022-11-13T02:25:18;37;35;
47810;PMS5003;33575;52.600;7.318;2022-11-13T02:27:49;32;29;
47810;PMS5003;33575;52.600;7.318;2022-11-13T02:30:26;29;27;
47810;PMS5003;33575;52.600;7.318;2022-11-13T02:32:51;32;32;
47810;PMS5003;33575;52.600;7.318;2022-11-13T02:35:22;39;35;
47810;PMS5003;33575;52.600;7.318;2022-11-13T02:37:52;36;32;
47810;PMS5003;33575;52.600;7.318;2022-11-13T02:40:23;34;30;
47810;PMS5003;33575;52.600;7.318;2022-11-13T02:42:53;40;36;
47810;PMS5003;33575;52.600;7.318;2022-11-13T02:45:24;39;36;
47810;PMS5003;33575;52.600;7.318;2022-11-13T02:47:54;38;36;
47810;PMS5003;33575;52.600;7.318;2022-11-13T02:50:24;33;33;
47810;PMS5003;33575;52.600;7.318;2022-11-13T02:52:55;35;34;
47810;PMS5003;33575;52.600;7.318;2022-11-13T02:55:25;36;34;
47810;PMS5003;33575;52.600;7.318;2022-11-13T02:57:56;33;32;
47810;PMS5003;33575;52.600;7.318;2022-11-13T03:00:26;32;32;
47810;PMS5003;33575;52.600;7.318;2022-11-13T03:02:57;36;34;
47810;PMS5003;33575;52.600;7.318;2022-11-13T03:05:27;43;42;
47810;PMS5003;33575;52.600;7.318;2022-11-13T03:07:57;37;35;
47810;PMS5003;33575;52.600;7.318;2022-11-13T03:10:27;38;38;
47810;PMS5003;33575;52.600;7.318;2022-11-13T03:12:58;34;33;
47810;PMS5003;33575;52.600;7.318;2022-11-13T03:15:28;33;32;
47810;PMS5003;33575;52.600;7.318;2022-11-13T03:18:01;38;35;
47810;PMS5003;33575;52.600;7.318;2022-11-13T03:20:29;36;35;
47810;PMS5003;33575;52.600;7.318;2022-11-13T03:22:59;30;29;
47810;PMS5003;33575;52.600;7.318;2022-11-13T03:25:30;39;38;
47810;PMS5003;33575;52.600;7.318;2022-11-13T03:28:00;35;35;
47810;PMS5003;33575;52.600;7.318;2022-11-13T03:30:30;40;38;
47810;PMS5003;33575;52.600;7.318;2022-11-13T03:33:00;41;37;
47810;PMS5003;33575;52.600;7.318;2022-11-13T03:35:36;40;37;
47810;PMS5003;33575;52.600;7.318;2022-11-13T03:38:02;38;34;
47810;PMS5003;33575;52.600;7.318;2022-11-13T03:40:32;42;38;
47810;PMS5003;33575;52.600;7.318;2022-11-13T03:43:02;34;32;
47810;PMS5003;33575;52.600;7.318;2022-11-13T03:45:33;35;33;
47810;PMS5003;33575;52.600;7.318;2022-11-13T03:48:04;37;37;
47810;PMS5003;33575;52.600;7.318;2022-11-13T03:50:33;38;35;
47810;PMS5003;33575;52.600;7.318;2022-11-13T03:53:04;34;31;
47810;PMS5003;33575;52.600;7.318;2022-11-13T03:55:35;37;35;
47810;PMS5003;33575;52.600;7.318;2022-11-13T03:58:05;38;36;
47810;PMS5003;33575;52.600;7.318;2022-11-13T04:00:36;36;35;
47810;PMS5003;33575;52.600;7.318;2022-11-13T04:03:06;43;38;
47810;PMS5003;33575;52.600;7.318;2022-11-13T04:05:37;40;38;
47810;PMS5003;33575;52.600;7.318;2022-11-13T04:08:07;33;32;
47810;PMS5003;33575;52.600;7.318;2022-11-13T04:10:37;32;32;
47810;PMS5003;33575;52.600;7.318;2022-11-13T04:13:08;34;34;
47810;PMS5003;33575;52.600;7.318;2022-11-13T04:15:38;34;33;
47810;PMS5003;33575;52.600;7.318;2022-11-13T04:18:09;30;30;
47810;PMS5003;33575;52.600;7.318;2022-11-13T04:20:40;37;34;
47810;PMS5003;33575;52.600;7.318;2022-11-13T04:23:10;35;34;
47810;PMS5003;33575;52.600;7.318;2022-11-13T04:25:41;33;32;
47810;PMS5003;33575;52.600;7.318;2022-11-13T04:28:11;37;35;
47810;PMS5003;33575;52.600;7.318;2022-11-13T04:30:42;34;34;
47810;PMS5003;33575;52.600;7.318;2022-11-13T04:33:13;34;34;
47810;PMS5003;33575;52.600;7.318;2022-11-13T04:35:43;41;40;
47810;PMS5003;33575;52.600;7.318;2022-11-13T04:38:13;31;30;
47810;PMS5003;33575;52.600;7.318;2022-11-13T04:40:47;34;33;
47810;PMS5003;33575;52.600;7.318;2022-11-13T04:43:15;36;34;
47810;PMS5003;33575;52.600;7.318;2022-11-13T04:45:45;38;35;
47810;PMS5003;33575;52.600;7.318;2022-11-13T04:48:16;37;35;
47810;PMS5003;33575;52.600;7.318;2022-11-13T04:50:46;35;34;
47810;PMS5003;33575;52.600;7.318;2022-11-13T04:53:16;33;32;
47810;PMS5003;33575;52.600;7.318;2022-11-13T04:55:47;40;37;
47810;PMS5003;33575;52.600;7.318;2022-11-13T04:58:18;36;33;
47810;PMS5003;33575;52.600;7.318;2022-11-13T05:00:48;35;33;
47810;PMS5003;33575;52.600;7.318;2022-11-13T05:03:18;38;36;
47810;PMS5003;33575;52.600;7.318;2022-11-13T05:05:48;33;31;
47810;PMS5003;33575;52.600;7.318;2022-11-13T05:08:19;34;32;
47810;PMS5003;33575;52.600;7.318;2022-11-13T05:10:50;39;39;
47810;PMS5003;33575;52.600;7.318;2022-11-13T05:13:20;32;30;
47810;PMS5003;33575;52.600;7.318;2022-11-13T05:18:23;38;37;
47810;PMS5003;33575;52.600;7.318;2022-11-13T05:20:53;32;30;
47810;PMS5003;33575;52.600;7.318;2022-11-13T05:23:23;38;36;
47810;PMS5003;33575;52.600;7.318;2022-11-13T05:28:24;34;34;
47810;PMS5003;33575;52.600;7.318;2022-11-13T05:33:24;33;32;
47810;PMS5003;33575;52.600;7.318;2022-11-13T05:35:59;35;33;
47810;PMS5003;33575;52.600;7.318;2022-11-13T05:38:26;34;34;
47810;PMS5003;33575;52.600;7.318;2022-11-13T05:41:00;34;32;
47810;PMS5003;33575;52.600;7.318;2022-11-13T05:43:26;36;35;
47810;PMS5003;33575;52.600;7.318;2022-11-13T05:46:00;30;30;
47810;PMS5003;33575;52.600;7.318;2022-11-13T05:48:27;35;33;
47810;PMS5003;33575;52.600;7.318;2022-11-13T05:50:59;32;30;
47810;PMS5003;33575;52.600;7.318;2022-11-13T05:53:27;33;32;
47810;PMS5003;33575;52.600;7.318;2022-11-13T05:55:58;41;38;
47810;PMS5003;33575;52.600;7.318;2022-11-13T05:58:29;33;31;
47810;PMS5003;33575;52.600;7.318;2022-11-13T06:03:29;38;36;
47810;PMS5003;33575;52.600;7.318;2022-11-13T06:05:59;32;32;
47810;PMS5003;33575;52.600;7.318;2022-11-13T06:08:31;37;35;
47810;PMS5003;33575;52.600;7.318;2022-11-13T06:11:02;32;32;
47810;PMS5003;33575;52.600;7.318;2022-11-13T06:13:31;37;34;
47810;PMS5003;33575;52.600;7.318;2022-11-13T06:16:03;36;33;
47810;PMS5003;33575;52.600;7.318;2022-11-13T06:18:33;37;35;
47810;PMS5003;33575;52.600;7.318;2022-11-13T06:21:06;35;32;
47810;PMS5003;33575;52.600;7.318;2022-11-13T06:23:34;33;32;
47810;PMS5003;33575;52.600;7.318;2022-11-13T06:26:04;44;40;
47810;PMS5003;33575;52.600;7.318;2022-11-13T06:28:34;38;36;
47810;PMS5003;33575;52.600;7.318;2022-11-13T06:31:05;40;38;
47810;PMS5003;33575;52.600;7.318;2022-11-13T06:33:36;39;36;
47810;PMS5003;33575;52.600;7.318;2022-11-13T06:36:05;35;33;
47810;PMS5003;33575;52.600;7.318;2022-11-13T06:38:36;35;32;
47810;PMS5003;33575;52.600;7.318;2022-11-13T06:41:06;36;34;
47810;PMS5003;33575;52.600;7.318;2022-11-13T06:43:37;37;34;
47810;PMS5003;33575;52.600;7.318;2022-11-13T06:46:09;39;37;
47810;PMS5003;33575;52.600;7.318;2022-11-13T06:48:38;38;36;
47810;PMS5003;33575;52.600;7.318;2022-11-13T06:51:08;44;40;
47810;PMS5003;33575;52.600;7.318;2022-11-13T06:53:39;34;31;
47810;PMS5003;33575;52.600;7.318;2022-11-13T06:56:09;33;33;
47810;PMS5003;33575;52.600;7.318;2022-11-13T06:58:39;36;36;
47810;PMS5003;33575;52.600;7.318;2022-11-13T07:01:11;36;34;
47810;PMS5003;33575;52.600;7.318;2022-11-13T07:03:40;35;35;
47810;PMS5003;33575;52.600;7.318;2022-11-13T07:06:12;33;33;
47810;PMS5003;33575;52.600;7.318;2022-11-13T07:08:42;38;35;
47810;PMS5003;33575;52.600;7.318;2022-11-13T07:11:13;35;33;
47810;PMS5003;33575;52.600;7.318;2022-11-13T07:13:42;34;34;
47810;PMS5003;33575;52.600;7.318;2022-11-13T07:16:17;37;37;
47810;PMS5003;33575;52.600;7.318;2022-11-13T07:18:47;44;41;
47810;PMS5003;33575;52.600;7.318;2022-11-13T07:21:14;39;37;
47810;PMS5003;33575;52.600;7.318;2022-11-13T07:23:46;41;39;
47810;PMS5003;33575;52.600;7.318;2022-11-13T07:26:15;37;36;
47810;PMS5003;33575;52.600;7.318;2022-11-13T07:28:46;45;41;
47810;PMS5003;33575;52.600;7.318;2022-11-13T07:31:17;35;33;
47810;PMS5003;33575;52.600;7.318;2022-11-13T07:33:48;34;31;
47810;PMS5003;33575;52.600;7.318;2022-11-13T07:36:18;39;38;
47810;PMS5003;33575;52.600;7.318;2022-11-13T07:38:50;33;29;
47810;PMS5003;33575;52.600;7.318;2022-11-13T07:41:20;36;35;
47810;PMS5003;33575;52.600;7.318;2022-11-13T07:43:50;34;32;
47810;PMS5003;33575;52.600;7.318;2022-11-13T07:46:21;39;35;
47810;PMS5003;33575;52.600;7.318;2022-11-13T07:48:52;32;29;
47810;PMS5003;33575;52.600;7.318;2022-11-13T07:51:22;33;33;
47810;PMS5003;33575;52.600;7.318;2022-11-13T07:53:52;39;35;
47810;PMS5003;33575;52.600;7.318;2022-11-13T07:56:23;35;32;
47810;PMS5003;33575;52.600;7.318;2022-11-13T07:58:53;40;36;
47810;PMS5003;33575;52.600;7.318;2022-11-13T08:01:24;32;31;
47810;PMS5003;33575;52.600;7.318;2022-11-13T08:03:54;40;38;
47810;PMS5003;33575;52.600;7.318;2022-11-13T08:06:24;35;33;
47810;PMS5003;33575;52.600;7.318;2022-11-13T08:08:55;44;44;
47810;PMS5003;33575;52.600;7.318;2022-11-13T08:11:25;39;36;
47810;PMS5003;33575;52.600;7.318;2022-11-13T08:13:56;38;37;
47810;PMS5003;33575;52.600;7.318;2022-11-13T08:16:26;38;35;
47810;PMS5003;33575;52.600;7.318;2022-11-13T08:18:57;42;40;
47810;PMS5003;33575;52.600;7.318;2022-11-13T08:21:28;34;34;
47810;PMS5003;33575;52.600;7.318;2022-11-13T08:23:58;42;40;
47810;PMS5003;33575;52.600;7.318;2022-11-13T08:26:28;45;42;
47810;PMS5003;33575;52.600;7.318;2022-11-13T08:28:58;50;48;
47810;PMS5003;33575;52.600;7.318;2022-11-13T08:31:29;50;48;
47810;PMS5003;33575;52.600;7.318;2022-11-13T08:34:00;56;54;
47810;PMS5003;33575;52.600;7.318;2022-11-13T08:36:30;55;53;
47810;PMS5003;33575;52.600;7.318;2022-11-13T08:39:01;54;51;
47810;PMS5003;33575;52.600;7.318;2022-11-13T08:41:31;51;47;
47810;PMS5003;33575;52.600;7.318;2022-11-13T08:44:02;53;51;
47810;PMS5003;33575;52.600;7.318;2022-11-13T08:46:33;48;46;
47810;PMS5003;33575;52.600;7.318;2022-11-13T08:49:03;45;44;
47810;PMS5003;33575;52.600;7.318;2022-11-13T08:51:33;46;43;
47810;PMS5003;33575;52.600;7.318;2022-11-13T08:54:04;43;43;
47810;PMS5003;33575;52.600;7.318;2022-11-13T08:56:34;52;48;
47810;PMS5003;33575;52.600;7.318;2022-11-13T08:59:05;47;42;
47810;PMS5003;33575;52.600;7.318;2022-11-13T09:01:36;43;41;
47810;PMS5003;33575;52.600;7.318;2022-11-13T09:04:06;43;40;
47810;PMS5003;33575;52.600;7.318;2022-11-13T09:06:37;46;43;
47810;PMS5003;33575;52.600;7.318;2022-11-13T09:09:06;42;38;
47810;PMS5003;33575;52.600;7.318;2022-11-13T09:11:36;44;40;
47810;PMS5003;33575;52.600;7.318;2022-11-13T09:14:07;40;38;
47810;PMS5003;33575;52.600;7.318;2022-11-13T09:16:38;37;33;
47810;PMS5003;33575;52.600;7.318;2022-11-13T09:19:09;36;34;
47810;PMS5003;33575;52.600;7.318;2022-11-13T09:21:40;40;38;
47810;PMS5003;33575;52.600;7.318;2022-11-13T09:24:10;34;31;
47810;PMS5003;33575;52.600;7.318;2022-11-13T09:26:40;34;33;
47810;PMS5003;33575;52.600;7.318;2022-11-13T09:29:11;32;31;
47810;PMS5003;33575;52.600;7.318;2022-11-13T09:31:42;37;36;
47810;PMS5003;33575;52.600;7.318;2022-11-13T09:34:12;38;37;
47810;PMS5003;33575;52.600;7.318;2022-11-13T09:36:42;32;31;
47810;PMS5003;33575;52.600;7.318;2022-11-13T09:39:13;32;32;
47810;PMS5003;33575;52.600;7.318;2022-11-13T09:41:44;29;29;
47810;PMS5003;33575;52.600;7.318;2022-11-13T09:44:15;31;28;
47810;PMS5003;33575;52.600;7.318;2022-11-13T09:46:45;34;32;
47810;PMS5003;33575;52.600;7.318;2022-11-13T09:49:15;39;37;
47810;PMS5003;33575;52.600;7.318;2022-11-13T09:51:47;39;38;
47810;PMS5003;33575;52.600;7.318;2022-11-13T09:54:16;34;32;
47810;PMS5003;33575;52.600;7.318;2022-11-13T09:56:49;35;34;
47810;PMS5003;33575;52.600;7.318;2022-11-13T09:59:19;39;36;
47810;PMS5003;33575;52.600;7.318;2022-11-13T10:01:50;35;35;
47810;PMS5003;33575;52.600;7.318;2022-11-13T10:04:18;34;32;
47810;PMS5003;33575;52.600;7.318;2022-11-13T10:06:51;32;30;
47810;PMS5003;33575;52.600;7.318;2022-11-13T10:09:19;30;30;
47810;PMS5003;33575;52.600;7.318;2022-11-13T10:11:49;30;29;
47810;PMS5003;33575;52.600;7.318;2022-11-13T10:14:19;28;27;
47810;PMS5003;33575;52.600;7.318;2022-11-13T10:16:50;34;32;
47810;PMS5003;33575;52.600;7.318;2022-11-13T10:19:20;34;31;
47810;PMS5003;33575;52.600;7.318;2022-11-13T10:21:56;32;29;
47810;PMS5003;33575;52.600;7.318;2022-11-13T10:24:21;32;30;
47810;PMS5003;33575;52.600;7.318;2022-11-13T10:26:51;31;30;
47810;PMS5003;33575;52.600;7.318;2022-11-13T10:29:21;30;28;
47810;PMS5003;33575;52.600;7.318;2022-11-13T10:31:52;28;28;
47810;PMS5003;33575;52.600;7.318;2022-11-13T10:34:22;27;26;
47810;PMS5003;33575;52.600;7.318;2022-11-13T10:36:59;26;26;
47810;PMS5003;33575;52.600;7.318;2022-11-13T10:39:23;27;26;
47810;PMS5003;33575;52.600;7.318;2022-11-13T10:41:53;24;24;
47810;PMS5003;33575;52.600;7.318;2022-11-13T10:44:24;28;27;
47810;PMS5003;33575;52.600;7.318;2022-11-13T10:49:25;26;26;
47810;PMS5003;33575;52.600;7.318;2022-11-13T10:51:56;25;24;
47810;PMS5003;33575;52.600;7.318;2022-11-13T10:54:26;24;24;
47810;PMS5003;33575;52.600;7.318;2022-11-13T10:56:56;30;29;
47810;PMS5003;33575;52.600;7.318;2022-11-13T11:02:06;28;27;
47810;PMS5003;33575;52.600;7.318;2022-11-13T11:04:28;27;27;
47810;PMS5003;33575;52.600;7.318;2022-11-13T11:07:03;26;25;
47810;PMS5003;33575;52.600;7.318;2022-11-13T11:09:29;30;30;
47810;PMS5003;33575;52.600;7.318;2022-11-13T11:12:04;26;26;
47810;PMS5003;33575;52.600;7.318;2022-11-13T11:14:31;23;23;
47810;PMS5003;33575;52.600;7.318;2022-11-13T11:17:00;31;30;
47810;PMS5003;33575;52.600;7.318;2022-11-13T11:19:31;27;25;
47810;PMS5003;33575;52.600;7.318;2022-11-13T11:22:02;25;25;
47810;PMS5003;33575;52.600;7.318;2022-11-13T11:24:32;31;26;
47810;PMS5003;33575;52.600;7.318;2022-11-13T11:27:02;31;31;
47810;PMS5003;33575;52.600;7.318;2022-11-13T11:29:33;30;29;
47810;PMS5003;33575;52.600;7.318;2022-11-13T11:32:06;28;28;
47810;PMS5003;33575;52.600;7.318;2022-11-13T11:34:34;29;27;
47810;PMS5003;33575;52.600;7.318;2022-11-13T11:37:06;25;24;
47810;PMS5003;33575;52.600;7.318;2022-11-13T11:39:36;24;23;
47810;PMS5003;33575;52.600;7.318;2022-11-13T11:42:09;28;27;
47810;PMS5003;33575;52.600;7.318;2022-11-13T11:44:38;23;23;
47810;PMS5003;33575;52.600;7.318;2022-11-13T11:47:10;24;22;
47810;PMS5003;33575;52.600;7.318;2022-11-13T11:49:37;21;19;
47810;PMS5003;33575;52.600;7.318;2022-11-13T11:52:10;25;23;
47810;PMS5003;33575;52.600;7.318;2022-11-13T11:54:39;28;27;
47810;PMS5003;33575;52.600;7.318;2022-11-13T11:57:13;33;31;
47810;PMS5003;33575;52.600;7.318;2022-11-13T11:59:43;28;26;
47810;PMS5003;33575;52.600;7.318;2022-11-13T12:02:17;25;24;
47810;PMS5003;33575;52.600;7.318;2022-11-13T12:04:45;28;24;
47810;PMS5003;33575;52.600;7.318;2022-11-13T12:07:14;29;29;
47810;PMS5003;33575;52.600;7.318;2022-11-13T12:09:42;27;26;
47810;PMS5003;33575;52.600;7.318;2022-11-13T12:12:13;27;26;
47810;PMS5003;33575;52.600;7.318;2022-11-13T12:14:44;29;27;
47810;PMS5003;33575;52.600;7.318;2022-11-13T12:17:23;24;23;
47810;PMS5003;33575;52.600;7.318;2022-11-13T12:19:44;27;27;
47810;PMS5003;33575;52.600;7.318;2022-11-13T12:22:15;26;24;
47810;PMS5003;33575;52.600;7.318;2022-11-13T12:24:48;25;24;
47810;PMS5003;33575;52.600;7.318;2022-11-13T12:27:17;19;19;
47810;PMS5003;33575;52.600;7.318;2022-11-13T12:29:48;20;19;
47810;PMS5003;33575;52.600;7.318;2022-11-13T12:32:19;20;20;
47810;PMS5003;33575;52.600;7.318;2022-11-13T12:34:47;21;20;
47810;PMS5003;33575;52.600;7.318;2022-11-13T12:37:18;17;17;
47810;PMS5003;33575;52.600;7.318;2022-11-13T12:39:47;21;19;
47810;PMS5003;33575;52.600;7.318;2022-11-13T12:42:19;24;21;
47810;PMS5003;33575;52.600;7.318;2022-11-13T12:44:50;21;17;
47810;PMS5003;33575;52.600;7.318;2022-11-13T12:47:17;17;17;
47810;PMS5003;33575;52.600;7.318;2022-11-13T12:52:18;21;19;
47810;PMS5003;33575;52.600;7.318;2022-11-13T12:54:48;18;18;
47810;PMS5003;33575;52.600;7.318;2022-11-13T12:57:20;20;19;
47810;PMS5003;33575;52.600;7.318;2022-11-13T12:59:50;19;16;
47810;PMS5003;33575;52.600;7.318;2022-11-13T13:02:26;17;16;
47810;PMS5003;33575;52.600;7.318;2022-11-13T13:04:54;18;16;
47810;PMS5003;33575;52.600;7.318;2022-11-13T13:07:24;19;16;
47810;PMS5003;33575;52.600;7.318;2022-11-13T13:09:54;20;19;
47810;PMS5003;33575;52.600;7.318;2022-11-13T13:12:26;15;15;
47810;PMS5003;33575;52.600;7.318;2022-11-13T13:14:57;16;16;
47810;PMS5003;33575;52.600;7.318;2022-11-13T13:17:22;21;19;
47810;PMS5003;33575;52.600;7.318;2022-11-13T13:19:57;16;16;
47810;PMS5003;33575;52.600;7.318;2022-11-13T13:22:25;22;19;
47810;PMS5003;33575;52.600;7.318;2022-11-13T13:24:58;22;22;
47810;PMS5003;33575;52.600;7.318;2022-11-13T13:27:25;20;19;
47810;PMS5003;33575;52.600;7.318;2022-11-13T13:29:56;19;19;
47810;PMS5003;33575;52.600;7.318;2022-11-13T13:32:26;21;19;
47810;PMS5003;33575;52.600;7.318;2022-11-13T13:34:57;20;19;
47810;PMS5003;33575;52.600;7.318;2022-11-13T13:37:29;20;18;
47810;PMS5003;33575;52.600;7.318;2022-11-13T13:39:59;18;18;
47810;PMS5003;33575;52.600;7.318;2022-11-13T13:42:34;21;19;
47810;PMS5003;33575;52.600;7.318;2022-11-13T13:45:02;19;19;
47810;PMS5003;33575;52.600;7.318;2022-11-13T13:47:28;21;20;
47810;PMS5003;33575;52.600;7.318;2022-11-13T13:49:58;22;20;
47810;PMS5003;33575;52.600;7.318;2022-11-13T13:52:30;17;17;
47810;PMS5003;33575;52.600;7.318;2022-11-13T13:54:59;20;19;
47810;PMS5003;33575;52.600;7.318;2022-11-13T13:57:29;20;20;
47810;PMS5003;33575;52.600;7.318;2022-11-13T14:00:00;20;20;
47810;PMS5003;33575;52.600;7.318;2022-11-13T14:02:30;22;21;
47810;PMS5003;33575;52.600;7.318;2022-11-13T14:05:00;22;21;
47810;PMS5003;33575;52.600;7.318;2022-11-13T14:07:31;19;19;
47810;PMS5003;33575;52.600;7.318;2022-11-13T14:12:32;21;21;
47810;PMS5003;33575;52.600;7.318;2022-11-13T14:15:03;22;20;
47810;PMS5003;33575;52.600;7.318;2022-11-13T14:17:33;22;21;
47810;PMS5003;33575;52.600;7.318;2022-11-13T14:20:04;26;26;
47810;PMS5003;33575;52.600;7.318;2022-11-13T14:22:34;27;25;
47810;PMS5003;33575;52.600;7.318;2022-11-13T14:25:05;33;31;
47810;PMS5003;33575;52.600;7.318;2022-11-13T14:27:35;33;29;
47810;PMS5003;33575;52.600;7.318;2022-11-13T14:30:19;30;29;
47810;PMS5003;33575;52.600;7.318;2022-11-13T14:32:37;24;24;
47810;PMS5003;33575;52.600;7.318;2022-11-13T14:35:06;27;23;
47810;PMS5003;33575;52.600;7.318;2022-11-13T14:37:37;22;21;
47810;PMS5003;33575;52.600;7.318;2022-11-13T14:40:13;27;25;
47810;PMS5003;33575;52.600;7.318;2022-11-13T14:42:37;21;21;
47810;PMS5003;33575;52.600;7.318;2022-11-13T14:45:12;25;24;
47810;PMS5003;33575;52.600;7.318;2022-11-13T14:47:38;26;26;
47810;PMS5003;33575;52.600;7.318;2022-11-13T14:52:38;29;27;
47810;PMS5003;33575;52.600;7.318;2022-11-13T15:00:11;28;27;
47810;PMS5003;33575;52.600;7.318;2022-11-13T15:02:41;30;26;
47810;PMS5003;33575;52.600;7.318;2022-11-13T15:05:12;28;26;
47810;PMS5003;33575;52.600;7.318;2022-11-13T15:07:43;25;25;
47810;PMS5003;33575;52.600;7.318;2022-11-13T15:10:14;30;28;
47810;PMS5003;33575;52.600;7.318;2022-11-13T15:12:43;25;23;
47810;PMS5003;33575;52.600;7.318;2022-11-13T15:15:15;26;24;
47810;PMS5003;33575;52.600;7.318;2022-11-13T15:17:44;28;25;
47810;PMS5003;33575;52.600;7.318;2022-11-13T15:20:16;30;29;
47810;PMS5003;33575;52.600;7.318;2022-11-13T15:22:45;29;27;
47810;PMS5003;33575;52.600;7.318;2022-11-13T15:25:16;24;24;
47810;PMS5003;33575;52.600;7.318;2022-11-13T15:27:46;30;27;
47810;PMS5003;33575;52.600;7.318;2022-11-13T15:30:17;30;29;
47810;PMS5003;33575;52.600;7.318;2022-11-13T15:32:47;24;23;
47810;PMS5003;33575;52.600;7.318;2022-11-13T15:35:18;24;23;
47810;PMS5003;33575;52.600;7.318;2022-11-13T15:37:48;27;25;
47810;PMS5003;33575;52.600;7.318;2022-11-13T15:40:19;31;30;
47810;PMS5003;33575;52.600;7.318;2022-11-13T15:42:50;28;27;
47810;PMS5003;33575;52.600;7.318;2022-11-13T15:45:20;25;25;
47810;PMS5003;33575;52.600;7.318;2022-11-13T15:47:51;25;25;
47810;PMS5003;33575;52.600;7.318;2022-11-13T15:50:21;29;29;
47810;PMS5003;33575;52.600;7.318;2022-11-13T15:52:52;28;27;
47810;PMS5003;33575;52.600;7.318;2022-11-13T15:55:24;27;27;
47810;PMS5003;33575;52.600;7.318;2022-11-13T15:57:53;22;22;
47810;PMS5003;33575;52.600;7.318;2022-11-13T16:00:24;25;25;
47810;PMS5003;33575;52.600;7.318;2022-11-13T16:02:55;26;25;
47810;PMS5003;33575;52.600;7.318;2022-11-13T16:05:25;33;30;
47810;PMS5003;33575;52.600;7.318;2022-11-13T16:07:55;28;28;
47810;PMS5003;33575;52.600;7.318;2022-11-13T16:10:25;31;28;
47810;PMS5003;33575;52.600;7.318;2022-11-13T16:12:55;32;32;
47810;PMS5003;33575;52.600;7.318;2022-11-13T16:15:26;30;28;
47810;PMS5003;33575;52.600;7.318;2022-11-13T16:17:56;34;32;
47810;PMS5003;33575;52.600;7.318;2022-11-13T16:20:26;38;35;
47810;PMS5003;33575;52.600;7.318;2022-11-13T16:22:56;34;31;
47810;PMS5003;33575;52.600;7.318;2022-11-13T16:25:26;38;36;
47810;PMS5003;33575;52.600;7.318;2022-11-13T16:27:57;35;35;
47810;PMS5003;33575;52.600;7.318;2022-11-13T16:30:27;33;31;
47810;PMS5003;33575;52.600;7.318;2022-11-13T16:32:58;38;36;
47810;PMS5003;33575;52.600;7.318;2022-11-13T16:35:28;40;36;
47810;PMS5003;33575;52.600;7.318;2022-11-13T16:37:59;35;33;
47810;PMS5003;33575;52.600;7.318;2022-11-13T16:40:29;40;37;
47810;PMS5003;33575;52.600;7.318;2022-11-13T16:43:00;38;37;
47810;PMS5003;33575;52.600;7.318;2022-11-13T16:45:30;37;36;
47810;PMS5003;33575;52.600;7.318;2022-11-13T16:48:01;35;35;
47810;PMS5003;33575;52.600;7.318;2022-11-13T16:50:32;42;39;
47810;PMS5003;33575;52.600;7.318;2022-11-13T16:53:01;39;37;
47810;PMS5003;33575;52.600;7.318;2022-11-13T16:55:31;38;36;
47810;PMS5003;33575;52.600;7.318;2022-11-13T16:58:02;35;33;
47810;PMS5003;33575;52.600;7.318;2022-11-13T17:00:32;36;36;
47810;PMS5003;33575;52.600;7.318;2022-11-13T17:03:03;35;34;
47810;PMS5003;33575;52.600;7.318;2022-11-13T17:05:33;38;37;
47810;PMS5003;33575;52.600;7.318;2022-11-13T17:08:03;38;35;
47810;PMS5003;33575;52.600;7.318;2022-11-13T17:10:34;35;32;